createdAt,value
2023-05-06T00:01:00.581Z,78.61
2023-05-06T00:02:05.116Z,78.46
2023-05-06T00:03:09.472Z,78.23
2023-05-06T00:04:11.804Z,78.44
2023-05-06T00:05:15.496Z,78.44
2023-05-06T00:06:17.911Z,78.46
2023-05-06T00:07:21.019Z,78.73
2023-05-06T00:08:23.307Z,78.91
2023-05-06T00:09:27.664Z,78.71
2023-05-06T00:10:30.006Z,78.92
2023-05-06T00:11:32.658Z,78.90
2023-05-06T00:12:35.510Z,78.57
2023-05-06T00:13:38.178Z,78.38
2023-05-06T00:14:40.461Z,78.32
2023-05-06T00:15:42.767Z,78.22
2023-05-06T00:16:45.431Z,78.08
2023-05-06T00:17:47.767Z,77.96
2023-05-06T00:18:50.088Z,78.04
2023-05-06T00:19:52.521Z,77.99
2023-05-06T00:20:55.474Z,78.67
2023-05-06T00:21:58.616Z,78.67
2023-05-06T00:23:01.014Z,78.27
2023-05-06T00:24:03.619Z,78.43
2023-05-06T00:25:06.813Z,78.38
2023-05-06T00:26:10.331Z,78.42
2023-05-06T00:27:12.874Z,78.34
2023-05-06T00:28:15.309Z,78.62
2023-05-06T00:29:17.761Z,78.58
2023-05-06T00:30:20.203Z,78.96
2023-05-06T00:31:22.681Z,78.90
2023-05-06T00:32:25.079Z,79.09
2023-05-06T00:33:27.129Z,79.14
2023-05-06T00:34:29.627Z,79.03
2023-05-06T00:35:31.992Z,79.05
2023-05-06T00:36:35.822Z,79.06
2023-05-06T00:37:38.365Z,79.26
2023-05-06T00:38:40.699Z,79.29
2023-05-06T00:39:43.335Z,79.19
2023-05-06T00:40:46.425Z,79.14
2023-05-06T00:41:49.448Z,79.13
2023-05-06T00:42:51.704Z,79.30
2023-05-06T00:43:54.231Z,79.65
2023-05-06T00:44:56.566Z,80.35
2023-05-06T00:45:59.549Z,80.76
2023-05-06T00:47:02.271Z,80.93
2023-05-06T00:48:06.188Z,80.78
2023-05-06T00:49:09.137Z,80.50
2023-05-06T00:50:12.230Z,80.41
2023-05-06T00:51:15.049Z,80.20
2023-05-06T00:52:19.192Z,80.19
2023-05-06T00:53:23.436Z,80.13
2023-05-06T00:54:26.617Z,80.17
2023-05-06T00:55:30.487Z,80.18
2023-05-06T00:56:32.988Z,80.16
2023-05-06T00:57:35.815Z,80.12
2023-05-06T00:58:38.388Z,80.95
2023-05-06T00:59:40.720Z,80.91
2023-05-06T01:00:44.147Z,80.84
2023-05-06T01:01:46.799Z,81.57
2023-05-06T01:02:49.288Z,81.49
2023-05-06T01:03:54.827Z,81.48
2023-05-06T01:04:57.978Z,81.42
2023-05-06T01:06:16.404Z,81.27
2023-05-06T01:07:31.377Z,81.24
2023-05-06T01:08:46.366Z,81.35
2023-05-06T01:10:04.983Z,81.18
2023-05-06T01:11:26.065Z,81.22
2023-05-06T01:12:56.074Z,81.09
2023-05-06T01:14:02.065Z,81.48
2023-05-06T01:16:41.606Z,81.32
2023-05-06T01:17:46.676Z,81.22
2023-05-06T01:18:51.318Z,81.11
2023-05-06T01:19:57.778Z,81.13
2023-05-06T01:21:01.376Z,81.04
2023-05-06T01:22:06.605Z,81.40
2023-05-06T01:23:12.458Z,81.64
2023-05-06T01:24:14.948Z,81.41
2023-05-06T01:25:21.465Z,81.17
2023-05-06T01:26:25.770Z,81.08
2023-05-06T01:27:28.088Z,80.96
2023-05-06T01:28:30.306Z,81.08
2023-05-06T01:29:35.119Z,80.92
2023-05-06T01:30:59.252Z,80.99
2023-05-06T01:32:23.205Z,80.70
2023-05-06T01:33:41.381Z,80.76
2023-05-06T01:34:47.208Z,80.99
2023-05-06T01:35:59.584Z,80.79
2023-05-06T01:37:08.243Z,80.36
2023-05-06T01:38:31.787Z,80.47
2023-05-06T01:39:35.491Z,80.27
2023-05-06T01:40:41.402Z,79.91
2023-05-06T01:41:46.371Z,79.85
2023-05-06T01:42:50.217Z,79.93
2023-05-06T01:43:54.128Z,80.45
2023-05-06T01:44:58.465Z,80.54
2023-05-06T01:46:02.476Z,80.62
2023-05-06T01:47:08.380Z,80.75
2023-05-06T01:48:11.888Z,80.67
2023-05-06T01:49:16.667Z,81.48
2023-05-06T01:50:19.316Z,81.88
2023-05-06T01:51:22.002Z,82.15
2023-05-06T01:52:26.119Z,82.26
2023-05-06T01:53:29.132Z,82.57
2023-05-06T01:54:31.489Z,82.69
2023-05-06T01:55:34.429Z,82.54
2023-05-06T01:56:36.920Z,82.72
2023-05-06T01:57:39.394Z,82.77
2023-05-06T01:58:42.357Z,83.04
2023-05-06T01:59:44.803Z,83.18
2023-05-06T02:00:47.098Z,83.33
2023-05-06T02:01:49.842Z,83.52
2023-05-06T02:02:52.614Z,83.63
2023-05-06T02:03:55.818Z,83.92
2023-05-06T02:04:58.799Z,83.87
2023-05-06T02:06:01.217Z,83.66
2023-05-06T02:07:05.185Z,83.48
2023-05-06T02:08:07.550Z,83.47
2023-05-06T02:09:09.878Z,83.74
2023-05-06T02:10:14.260Z,83.69
2023-05-06T02:11:18.711Z,83.39
2023-05-06T02:12:22.168Z,83.00
2023-05-06T02:13:24.755Z,82.77
2023-05-06T02:14:28.306Z,82.44
2023-05-06T02:15:30.856Z,82.23
2023-05-06T02:16:33.535Z,82.48
2023-05-06T02:17:37.227Z,82.50
2023-05-06T02:18:40.889Z,82.51
2023-05-06T02:19:43.378Z,82.30
2023-05-06T02:20:45.792Z,82.18
2023-05-06T02:21:51.412Z,82.04
2023-05-06T02:22:53.832Z,81.83
2023-05-06T02:23:57.720Z,81.72
2023-05-06T02:25:01.003Z,81.21
2023-05-06T02:26:03.930Z,80.94
2023-05-06T02:27:06.348Z,80.78
2023-05-06T02:28:08.715Z,80.88
2023-05-06T02:29:11.043Z,81.06
2023-05-06T02:30:14.226Z,81.29
2023-05-06T02:31:16.882Z,81.61
2023-05-06T02:32:19.358Z,81.89
2023-05-06T02:33:22.312Z,82.18
2023-05-06T02:34:24.705Z,82.11
2023-05-06T02:35:27.634Z,81.96
2023-05-06T02:36:30.188Z,81.69
2023-05-06T02:37:32.981Z,81.49
2023-05-06T02:38:36.406Z,81.28
2023-05-06T02:39:38.830Z,81.24
2023-05-06T02:40:41.359Z,81.20
2023-05-06T02:41:43.663Z,81.13
2023-05-06T02:42:46.782Z,81.27
2023-05-06T02:43:49.243Z,81.10
2023-05-06T02:44:51.878Z,80.86
2023-05-06T02:45:54.679Z,80.68
2023-05-06T02:46:57.320Z,80.63
2023-05-06T02:48:00.822Z,80.35
2023-05-06T02:49:03.283Z,80.10
2023-05-06T02:50:06.510Z,79.82
2023-05-06T02:51:08.892Z,79.72
2023-05-06T02:52:11.143Z,79.68
2023-05-06T02:53:13.395Z,79.79
2023-05-06T02:54:15.663Z,79.51
2023-05-06T02:55:18.907Z,79.19
2023-05-06T02:56:21.394Z,78.87
2023-05-06T02:57:23.903Z,78.70
2023-05-06T02:58:26.242Z,78.57
2023-05-06T02:59:29.088Z,78.26
2023-05-06T03:00:31.537Z,78.05
2023-05-06T03:01:34.003Z,77.93
2023-05-06T03:02:36.604Z,77.66
2023-05-06T03:03:38.939Z,77.53
2023-05-06T03:04:41.390Z,77.11
2023-05-06T03:05:43.867Z,76.70
2023-05-06T03:06:46.104Z,76.53
2023-05-06T03:07:48.528Z,76.10
2023-05-06T03:08:50.927Z,75.93
2023-05-06T03:09:53.279Z,75.66
2023-05-06T03:10:56.430Z,75.17
2023-05-06T03:11:59.241Z,75.09
2023-05-06T03:13:02.013Z,75.05
2023-05-06T03:14:05.343Z,74.92
2023-05-06T03:15:08.950Z,74.92
2023-05-06T03:16:13.641Z,74.79
2023-05-06T03:17:17.677Z,75.16
2023-05-06T03:18:20.283Z,75.39
2023-05-06T03:19:22.671Z,75.43
2023-05-06T03:20:24.888Z,75.42
2023-05-06T03:21:29.444Z,75.53
2023-05-06T03:22:31.812Z,75.77
2023-05-06T03:23:34.081Z,75.64
2023-05-06T03:24:36.480Z,75.36
2023-05-06T03:25:39.856Z,75.20
2023-05-06T03:26:43.205Z,75.05
2023-05-06T03:27:46.765Z,75.02
2023-05-06T03:28:50.934Z,75.33
2023-05-06T03:29:55.282Z,75.31
2023-05-06T03:30:58.704Z,75.46
2023-05-06T03:32:04.729Z,75.76
2023-05-06T03:33:08.908Z,75.54
2023-05-06T03:34:11.427Z,75.51
2023-05-06T03:35:14.416Z,75.37
2023-05-06T03:36:17.899Z,75.72
2023-05-06T03:37:21.274Z,75.71
2023-05-06T03:38:25.540Z,75.25
2023-05-06T03:39:29.606Z,75.32
2023-05-06T03:40:33.504Z,75.00
2023-05-06T03:41:36.089Z,74.67
2023-05-06T03:42:39.999Z,74.34
2023-05-06T03:43:43.289Z,74.30
2023-05-06T03:44:47.190Z,74.13
2023-05-06T03:45:51.006Z,74.09
2023-05-06T03:46:53.833Z,73.88
2023-05-06T03:47:58.472Z,73.74
2023-05-06T03:49:02.288Z,73.79
2023-05-06T03:50:05.988Z,73.69
2023-05-06T03:51:08.936Z,73.51
2023-05-06T03:52:11.544Z,73.34
2023-05-06T03:53:15.917Z,73.10
2023-05-06T03:54:19.588Z,73.02
2023-05-06T03:55:22.658Z,72.91
2023-05-06T03:56:25.412Z,73.19
2023-05-06T03:57:28.913Z,73.09
2023-05-06T03:58:31.787Z,72.91
2023-05-06T03:59:34.857Z,72.60
2023-05-06T04:00:38.253Z,72.82
2023-05-06T04:01:41.412Z,72.94
2023-05-06T04:02:44.651Z,73.05
2023-05-06T04:03:48.885Z,72.67
2023-05-06T04:04:51.900Z,72.56
2023-05-06T04:05:54.259Z,72.41
2023-05-06T04:06:59.199Z,72.13
2023-05-06T04:08:01.522Z,72.30
2023-05-06T04:09:05.690Z,73.03
2023-05-06T04:10:09.490Z,73.25
2023-05-06T04:11:12.837Z,73.47
2023-05-06T04:12:15.185Z,73.26
2023-05-06T04:13:17.902Z,72.98
2023-05-06T04:14:22.101Z,72.87
2023-05-06T04:15:24.782Z,72.88
2023-05-06T04:16:27.422Z,72.84
2023-05-06T04:17:31.240Z,72.91
2023-05-06T04:18:33.856Z,73.07
2023-05-06T04:19:38.021Z,72.91
2023-05-06T04:20:41.051Z,72.96
2023-05-06T04:21:43.804Z,72.87
2023-05-06T04:22:47.098Z,72.85
2023-05-06T04:23:49.652Z,72.69
2023-05-06T04:24:53.651Z,72.69
2023-05-06T04:25:57.249Z,72.31
2023-05-06T04:27:02.084Z,72.41
2023-05-06T04:28:05.373Z,72.39
2023-05-06T04:29:08.732Z,72.34
2023-05-06T04:30:13.553Z,72.34
2023-05-06T04:31:16.407Z,72.16
2023-05-06T04:32:22.608Z,72.07
2023-05-06T04:33:25.160Z,72.14
2023-05-06T04:34:28.260Z,72.00
2023-05-06T04:35:31.793Z,71.90
2023-05-06T04:36:34.671Z,71.85
2023-05-06T04:37:54.159Z,71.59
2023-05-06T04:38:58.430Z,71.23
2023-05-06T04:40:02.421Z,70.90
2023-05-06T04:41:05.513Z,70.75
2023-05-06T04:42:08.459Z,70.63
2023-05-06T04:43:12.768Z,70.55
2023-05-06T04:44:16.678Z,70.23
2023-05-06T04:45:21.167Z,69.97
2023-05-06T04:46:24.824Z,69.96
2023-05-06T04:47:27.920Z,69.99
2023-05-06T04:48:30.987Z,69.57
2023-05-06T04:49:33.893Z,69.31
2023-05-06T04:50:36.727Z,69.37
2023-05-06T04:51:38.982Z,69.59
2023-05-06T04:52:41.517Z,69.56
2023-05-06T04:53:43.832Z,69.31
2023-05-06T04:54:46.548Z,69.34
2023-05-06T04:55:48.973Z,69.21
2023-05-06T04:56:51.688Z,69.09
2023-05-06T04:57:55.333Z,68.95
2023-05-06T04:58:57.786Z,68.82
2023-05-06T05:00:00.685Z,68.80
2023-05-06T05:01:09.342Z,68.88
2023-05-06T05:02:11.917Z,68.66
2023-05-06T05:03:15.241Z,68.43
2023-05-06T05:04:17.996Z,68.14
2023-05-06T05:05:20.506Z,68.08
2023-05-06T05:06:24.701Z,68.10
2023-05-06T05:07:28.277Z,68.22
2023-05-06T05:08:30.594Z,68.23
2023-05-06T05:09:34.032Z,68.12
2023-05-06T05:10:37.392Z,67.62
2023-05-06T05:11:40.075Z,66.80
2023-05-06T05:12:42.341Z,66.06
2023-05-06T05:13:44.839Z,65.78
2023-05-06T05:14:47.695Z,65.81
2023-05-06T05:15:55.318Z,65.89
2023-05-06T05:16:59.198Z,65.79
2023-05-06T05:18:01.781Z,65.58
2023-05-06T05:19:04.923Z,64.44
2023-05-06T05:20:10.073Z,63.63
2023-05-06T05:21:13.209Z,63.41
2023-05-06T05:22:16.084Z,63.63
2023-05-06T05:23:19.602Z,63.90
2023-05-06T05:24:22.571Z,63.96
2023-05-06T05:25:25.278Z,63.39
2023-05-06T05:26:28.177Z,62.62
2023-05-06T05:27:30.477Z,62.47
2023-05-06T05:28:33.046Z,61.22
2023-05-06T05:29:37.548Z,60.39
2023-05-06T05:30:41.401Z,59.82
2023-05-06T05:31:45.045Z,59.53
2023-05-06T05:32:48.160Z,59.14
2023-05-06T05:33:52.134Z,58.46
2023-05-06T05:34:56.684Z,58.59
2023-05-06T05:36:00.211Z,58.16
2023-05-06T05:37:04.001Z,57.51
2023-05-06T05:38:08.197Z,57.30
2023-05-06T05:39:10.971Z,56.34
2023-05-06T05:40:17.050Z,57.39
2023-05-06T05:41:19.932Z,56.35
2023-05-06T05:42:23.019Z,55.83
2023-05-06T05:43:27.117Z,54.42
2023-05-06T05:44:30.458Z,54.58
2023-05-06T05:45:33.840Z,52.33
2023-05-06T05:46:36.989Z,52.88
2023-05-06T05:47:39.757Z,52.80
2023-05-06T05:48:42.737Z,53.97
2023-05-06T05:49:46.537Z,53.83
2023-05-06T05:50:49.167Z,54.46
2023-05-06T05:51:52.530Z,52.30
2023-05-06T05:52:55.723Z,51.65
2023-05-06T05:53:58.561Z,52.64
2023-05-06T05:55:01.173Z,50.54
2023-05-06T05:56:04.846Z,54.96
2023-05-06T05:57:07.295Z,51.79
2023-05-06T05:58:14.333Z,51.28
2023-05-06T05:59:18.511Z,50.85
2023-05-06T06:00:22.370Z,50.23
2023-05-06T06:01:26.851Z,50.01
2023-05-06T06:02:29.833Z,49.31
2023-05-06T06:03:33.213Z,48.23
2023-05-06T06:04:36.406Z,49.02
2023-05-06T06:05:40.375Z,46.97
2023-05-06T06:06:43.481Z,45.52
2023-05-06T06:07:46.661Z,46.54
2023-05-06T06:08:49.526Z,46.58
2023-05-06T06:09:52.412Z,46.00
2023-05-06T06:10:56.648Z,47.87
2023-05-06T06:12:01.510Z,46.15
2023-05-06T06:13:05.969Z,45.48
2023-05-06T06:14:08.734Z,46.16
2023-05-06T06:15:11.746Z,47.00
2023-05-06T06:16:16.374Z,47.00
2023-05-06T06:17:18.952Z,48.21
2023-05-06T06:18:21.768Z,48.02
2023-05-06T06:19:27.953Z,50.57
2023-05-06T06:20:32.197Z,51.08
2023-05-06T06:21:34.925Z,47.15
2023-05-06T06:22:37.401Z,44.59
2023-05-06T06:23:40.974Z,44.27
2023-05-06T06:24:44.009Z,44.27
2023-05-06T06:25:47.544Z,44.08
2023-05-06T06:26:49.829Z,44.96
2023-05-06T06:27:56.244Z,45.22
2023-05-06T06:28:58.986Z,47.53
2023-05-06T06:30:02.090Z,46.04
2023-05-06T06:31:05.191Z,44.75
2023-05-06T06:32:09.902Z,44.76
2023-05-06T06:33:13.785Z,45.79
2023-05-06T06:34:16.587Z,44.43
2023-05-06T06:35:20.028Z,43.58
2023-05-06T06:36:22.960Z,44.75
2023-05-06T06:37:27.155Z,42.57
2023-05-06T06:38:29.788Z,41.82
2023-05-06T06:39:33.209Z,48.92
2023-05-06T06:40:39.369Z,43.22
2023-05-06T06:41:42.329Z,47.48
2023-05-06T06:42:46.973Z,45.69
2023-05-06T06:44:08.087Z,43.59
2023-05-06T06:45:12.918Z,42.39
2023-05-06T06:46:16.362Z,43.10
2023-05-06T06:47:18.776Z,43.14
2023-05-06T06:48:22.726Z,43.84
2023-05-06T06:49:25.904Z,42.77
2023-05-06T06:50:29.017Z,44.61
2023-05-06T06:51:31.792Z,44.38
2023-05-06T06:52:35.396Z,42.11
2023-05-06T06:53:39.162Z,39.57
2023-05-06T06:54:42.320Z,41.88
2023-05-06T06:55:47.346Z,40.91
2023-05-06T06:56:51.405Z,41.10
2023-05-06T06:57:53.692Z,41.90
2023-05-06T06:58:56.518Z,44.17
2023-05-06T06:59:59.031Z,40.59
2023-05-06T07:01:01.177Z,38.52
2023-05-06T07:02:03.581Z,40.54
2023-05-06T07:03:05.738Z,39.16
2023-05-06T07:04:08.934Z,40.99
2023-05-06T07:05:12.777Z,43.92
2023-05-06T07:06:16.497Z,41.84
2023-05-06T07:07:18.773Z,37.35
2023-05-06T07:08:22.782Z,42.15
2023-05-06T07:09:26.151Z,44.36
2023-05-06T07:10:29.647Z,41.66
2023-05-06T07:11:32.103Z,41.31
2023-05-06T07:12:35.593Z,39.85
2023-05-06T07:13:39.091Z,38.72
2023-05-06T07:14:42.464Z,38.36
2023-05-06T07:15:45.232Z,37.41
2023-05-06T07:16:49.988Z,35.78
2023-05-06T07:17:52.337Z,34.71
2023-05-06T07:18:55.898Z,35.49
2023-05-06T07:19:58.161Z,34.59
2023-05-06T07:21:01.739Z,34.82
2023-05-06T07:22:05.270Z,37.44
2023-05-06T07:23:07.792Z,35.20
2023-05-06T07:24:10.259Z,36.06
2023-05-06T07:25:12.793Z,39.51
2023-05-06T07:26:15.991Z,36.23
2023-05-06T07:27:18.302Z,35.16
2023-05-06T07:28:20.625Z,36.23
2023-05-06T07:29:23.235Z,34.62
2023-05-06T07:30:25.882Z,34.35
2023-05-06T07:31:29.950Z,36.19
2023-05-06T07:32:32.956Z,36.66
2023-05-06T07:33:35.245Z,36.14
2023-05-06T07:34:38.378Z,36.96
2023-05-06T07:35:41.123Z,34.77
2023-05-06T07:36:44.451Z,34.36
2023-05-06T07:37:47.121Z,35.13
2023-05-06T07:38:50.510Z,35.21
2023-05-06T07:39:53.895Z,35.21
2023-05-06T07:40:56.474Z,35.78
2023-05-06T07:41:59.541Z,34.39
2023-05-06T07:43:04.117Z,35.46
2023-05-06T07:44:06.910Z,34.86
2023-05-06T07:45:11.192Z,34.68
2023-05-06T07:46:14.446Z,33.80
2023-05-06T07:47:29.094Z,33.62
2023-05-06T07:48:35.886Z,33.54
2023-05-06T07:49:38.767Z,34.12
2023-05-06T07:50:41.327Z,34.78
2023-05-06T07:51:43.925Z,35.10
2023-05-06T07:52:47.257Z,33.84
2023-05-06T07:53:50.341Z,34.64
2023-05-06T07:54:53.270Z,34.71
2023-05-06T07:55:59.285Z,37.09
2023-05-06T07:57:02.270Z,33.53
2023-05-06T07:58:05.569Z,37.64
2023-05-06T07:59:07.880Z,33.50
2023-05-06T08:00:12.218Z,33.03
2023-05-06T08:01:20.984Z,32.47
2023-05-06T08:02:23.712Z,33.48
2023-05-06T08:03:27.404Z,34.38
2023-05-06T08:04:30.196Z,33.38
2023-05-06T08:05:32.719Z,33.37
2023-05-06T08:06:34.948Z,35.53
2023-05-06T08:07:37.668Z,34.36
2023-05-06T08:08:40.088Z,35.06
2023-05-06T08:09:42.410Z,33.77
2023-05-06T08:10:45.256Z,34.64
2023-05-06T08:11:49.173Z,36.50
2023-05-06T08:12:53.095Z,33.62
2023-05-06T08:13:55.685Z,33.46
2023-05-06T08:14:58.859Z,32.52
2023-05-06T08:16:02.701Z,32.18
2023-05-06T08:17:05.127Z,32.76
2023-05-06T08:18:20.955Z,32.23
2023-05-06T08:19:11.370Z,33.20
2023-05-06T08:20:14.964Z,33.37
2023-05-06T08:21:17.212Z,33.08
2023-05-06T08:22:19.234Z,32.46
2023-05-06T08:23:21.239Z,33.89
2023-05-06T08:24:23.546Z,34.82
2023-05-06T08:25:25.871Z,35.25
2023-05-06T08:26:28.350Z,33.32
2023-05-06T08:27:31.027Z,32.85
2023-05-06T08:28:33.373Z,34.93
2023-05-06T08:29:35.586Z,39.25
2023-05-06T08:30:38.013Z,34.04
2023-05-06T08:31:40.477Z,31.88
2023-05-06T08:32:43.283Z,31.51
2023-05-06T08:33:45.886Z,31.13
2023-05-06T08:34:48.225Z,31.54
2023-05-06T08:35:51.121Z,32.74
2023-05-06T08:36:53.573Z,36.34
2023-05-06T08:37:56.117Z,32.64
2023-05-06T08:38:59.311Z,33.27
2023-05-06T08:40:02.597Z,36.84
2023-05-06T08:41:12.429Z,32.54
2023-05-06T08:42:14.778Z,33.99
2023-05-06T08:43:20.731Z,31.00
2023-05-06T08:44:24.097Z,31.02
2023-05-06T08:45:28.685Z,30.85
2023-05-06T08:46:31.352Z,32.40
2023-05-06T08:47:34.298Z,32.40
2023-05-06T08:48:37.864Z,34.08
2023-05-06T08:49:40.218Z,32.10
2023-05-06T08:50:43.195Z,32.16
2023-05-06T08:51:47.109Z,33.38
2023-05-06T08:52:50.692Z,31.35
2023-05-06T08:53:54.656Z,31.41
2023-05-06T08:55:00.311Z,31.90
2023-05-06T08:56:05.816Z,33.14
2023-05-06T08:57:12.526Z,31.76
2023-05-06T08:58:17.596Z,32.06
2023-05-06T08:59:23.395Z,30.19
2023-05-06T09:00:26.758Z,32.28
2023-05-06T09:01:29.261Z,31.02
2023-05-06T09:02:32.817Z,31.90
2023-05-06T09:03:35.326Z,33.29
2023-05-06T09:04:38.167Z,30.53
2023-05-06T09:05:40.567Z,31.13
2023-05-06T09:06:42.969Z,29.80
2023-05-06T09:07:45.878Z,31.35
2023-05-06T09:08:47.992Z,28.50
2023-05-06T09:09:51.734Z,29.82
2023-05-06T09:10:54.119Z,29.99
2023-05-06T09:11:57.921Z,27.89
2023-05-06T09:13:00.495Z,29.98
2023-05-06T09:14:15.154Z,31.29
2023-05-06T09:15:17.533Z,30.55
2023-05-06T09:16:30.291Z,28.55
2023-05-06T09:17:32.919Z,27.51
2023-05-06T09:18:36.759Z,27.97
2023-05-06T09:19:39.838Z,27.97
2023-05-06T09:20:44.772Z,29.24
2023-05-06T09:21:49.735Z,29.35
2023-05-06T09:22:55.473Z,32.26
2023-05-06T09:23:58.505Z,29.82
2023-05-06T09:25:01.024Z,28.45
2023-05-06T09:26:03.712Z,28.33
2023-05-06T09:27:08.418Z,28.97
2023-05-06T09:28:13.871Z,31.11
2023-05-06T09:29:16.259Z,31.29
2023-05-06T09:30:20.014Z,29.93
2023-05-06T09:31:23.488Z,30.03
2023-05-06T09:32:26.353Z,29.84
2023-05-06T09:33:29.903Z,28.65
2023-05-06T09:34:32.894Z,28.74
2023-05-06T09:35:40.167Z,29.04
2023-05-06T09:36:42.456Z,30.71
2023-05-06T09:37:44.736Z,28.55
2023-05-06T09:38:47.302Z,28.58
2023-05-06T09:39:53.589Z,28.38
2023-05-06T09:40:56.524Z,29.51
2023-05-06T09:41:59.471Z,27.91
2023-05-06T09:43:03.411Z,28.14
2023-05-06T09:44:05.842Z,32.11
2023-05-06T09:45:10.405Z,27.66
2023-05-06T09:46:13.970Z,27.89
2023-05-06T09:47:16.588Z,27.74
2023-05-06T09:48:19.194Z,28.59
2023-05-06T09:49:21.845Z,27.59
2023-05-06T09:50:25.958Z,28.50
2023-05-06T09:51:30.498Z,28.04
2023-05-06T09:52:33.399Z,28.39
2023-05-06T09:53:37.255Z,29.34
2023-05-06T09:54:41.706Z,27.90
2023-05-06T09:55:45.374Z,28.58
2023-05-06T09:56:48.447Z,28.16
2023-05-06T09:57:51.519Z,28.55
2023-05-06T09:58:55.861Z,29.22
2023-05-06T10:00:00.180Z,27.33
2023-05-06T10:01:06.248Z,28.14
2023-05-06T10:02:10.782Z,28.72
2023-05-06T10:03:18.030Z,28.49
2023-05-06T10:04:26.248Z,27.29
2023-05-06T10:05:30.559Z,28.45
2023-05-06T10:06:35.073Z,28.95
2023-05-06T10:07:39.497Z,27.83
2023-05-06T10:08:45.455Z,29.63
2023-05-06T10:09:50.701Z,27.30
2023-05-06T10:10:53.253Z,26.91
2023-05-06T10:11:55.670Z,27.68
2023-05-06T10:12:58.111Z,26.96
2023-05-06T10:14:01.361Z,27.27
2023-05-06T10:15:05.839Z,27.02
2023-05-06T10:16:11.155Z,26.87
2023-05-06T10:17:15.444Z,27.11
2023-05-06T10:18:20.135Z,25.99
2023-05-06T10:19:26.053Z,28.02
2023-05-06T10:20:33.517Z,29.23
2023-05-06T10:21:38.539Z,26.80
2023-05-06T10:23:02.758Z,27.08
2023-05-06T10:24:08.507Z,27.27
2023-05-06T10:25:30.305Z,26.90
2023-05-06T10:26:36.445Z,26.69
2023-05-06T10:27:42.215Z,29.64
2023-05-06T10:28:49.569Z,31.15
2023-05-06T10:29:55.387Z,26.04
2023-05-06T10:30:59.323Z,27.01
2023-05-06T10:32:03.615Z,25.42
2023-05-06T10:33:11.205Z,26.95
2023-05-06T10:34:16.526Z,27.50
2023-05-06T10:35:42.250Z,26.34
2023-05-06T10:36:48.001Z,28.13
2023-05-06T10:37:52.425Z,27.97
2023-05-06T10:38:57.518Z,25.93
2023-05-06T10:40:02.263Z,26.61
2023-05-06T10:41:06.592Z,27.26
2023-05-06T10:42:10.781Z,26.71
2023-05-06T10:43:22.258Z,27.72
2023-05-06T10:44:46.126Z,26.13
2023-05-06T10:46:08.391Z,26.38
2023-05-06T10:47:11.127Z,25.71
2023-05-06T10:48:14.495Z,25.41
2023-05-06T10:49:17.746Z,25.53
2023-05-06T10:50:24.770Z,26.00
2023-05-06T10:51:28.121Z,26.40
2023-05-06T10:52:46.663Z,27.34
2023-05-06T10:54:04.087Z,27.49
2023-05-06T10:55:10.990Z,27.03
2023-05-06T10:56:14.956Z,25.48
2023-05-06T10:57:17.650Z,25.58
2023-05-06T10:58:20.566Z,26.70
2023-05-06T10:59:30.077Z,25.91
2023-05-06T11:00:34.077Z,25.80
2023-05-06T11:01:43.015Z,25.29
2023-05-06T11:02:47.467Z,24.42
2023-05-06T11:03:51.189Z,24.28
2023-05-06T11:04:57.053Z,24.28
2023-05-06T11:05:59.372Z,25.14
2023-05-06T11:07:11.069Z,25.16
2023-05-06T11:08:14.571Z,25.71
2023-05-06T11:09:23.348Z,26.00
2023-05-06T11:10:33.999Z,26.17
2023-05-06T11:12:02.903Z,28.49
2023-05-06T11:13:27.066Z,25.22
2023-05-06T11:14:34.861Z,24.40
2023-05-06T11:15:39.850Z,26.75
2023-05-06T11:16:50.627Z,23.94
2023-05-06T11:17:55.694Z,24.14
2023-05-06T11:18:58.543Z,23.84
2023-05-06T11:20:22.223Z,24.97
2023-05-06T11:21:34.477Z,24.57
2023-05-06T11:22:43.110Z,25.42
2023-05-06T11:23:48.913Z,23.89
2023-05-06T11:24:51.139Z,24.86
2023-05-06T11:25:56.820Z,26.22
2023-05-06T11:27:00.655Z,24.66
2023-05-06T11:28:07.504Z,25.91
2023-05-06T11:29:09.996Z,26.08
2023-05-06T11:30:15.317Z,24.67
2023-05-06T11:31:18.592Z,23.36
2023-05-06T11:32:24.571Z,23.48
2023-05-06T11:33:29.759Z,27.84
2023-05-06T11:34:34.774Z,24.64
2023-05-06T11:35:37.726Z,22.81
2023-05-06T11:37:03.961Z,22.50
2023-05-06T11:38:06.305Z,25.46
2023-05-06T11:39:08.868Z,25.39
2023-05-06T11:40:15.426Z,24.14
2023-05-06T11:41:19.135Z,26.35
2023-05-06T11:42:27.033Z,24.43
2023-05-06T11:43:29.729Z,23.97
2023-05-06T11:44:35.737Z,23.27
2023-05-06T11:45:44.299Z,22.41
2023-05-06T11:46:49.925Z,24.11
2023-05-06T11:47:54.601Z,22.90
2023-05-06T11:48:57.003Z,22.66
2023-05-06T11:50:01.337Z,23.35
2023-05-06T11:51:03.783Z,22.17
2023-05-06T11:52:07.201Z,22.34
2023-05-06T11:53:09.380Z,22.95
2023-05-06T11:54:11.715Z,23.12
2023-05-06T11:55:14.705Z,25.68
2023-05-06T11:56:17.085Z,25.64
2023-05-06T11:57:20.343Z,22.02
2023-05-06T11:58:29.193Z,24.65
2023-05-06T11:59:38.282Z,23.31
2023-05-06T12:00:51.173Z,24.49
2023-05-06T12:01:53.829Z,24.20
2023-05-06T12:02:57.550Z,23.92
2023-05-06T12:04:02.025Z,23.87
2023-05-06T12:05:05.968Z,23.56
2023-05-06T12:06:09.310Z,22.07
2023-05-06T12:07:14.267Z,22.67
2023-05-06T12:08:28.076Z,23.02
2023-05-06T12:09:29.402Z,23.06
2023-05-06T12:10:33.400Z,21.78
2023-05-06T12:11:37.352Z,22.62
2023-05-06T12:12:40.987Z,23.26
2023-05-06T12:13:44.060Z,22.80
2023-05-06T12:14:47.554Z,22.49
2023-05-06T12:15:50.889Z,24.96
2023-05-06T12:16:55.993Z,24.96
2023-05-06T12:17:57.865Z,24.94
2023-05-06T12:19:02.238Z,24.44
2023-05-06T12:20:05.754Z,23.55
2023-05-06T12:21:08.254Z,24.13
2023-05-06T12:22:21.718Z,21.53
2023-05-06T12:23:23.944Z,22.83
2023-05-06T12:24:30.055Z,22.53
2023-05-06T12:25:33.079Z,21.37
2023-05-06T12:26:50.493Z,20.95
2023-05-06T12:27:53.472Z,21.63
2023-05-06T12:30:37.250Z,22.61
2023-05-06T12:31:39.817Z,21.64
2023-05-06T12:33:01.632Z,21.20
2023-05-06T12:34:04.505Z,22.63
2023-05-06T12:35:08.978Z,22.44
2023-05-06T12:36:12.765Z,21.34
2023-05-06T12:37:26.687Z,23.24
2023-05-06T12:38:31.463Z,24.49
2023-05-06T12:39:38.866Z,21.89
2023-05-06T12:40:43.063Z,22.11
2023-05-06T12:41:46.958Z,23.09
2023-05-06T12:42:55.689Z,22.08
2023-05-06T12:43:57.944Z,21.63
2023-05-06T12:45:03.801Z,21.77
2023-05-06T12:46:08.211Z,23.49
2023-05-06T12:47:25.339Z,22.76
2023-05-06T12:48:28.397Z,22.72
2023-05-06T12:49:48.733Z,21.95
2023-05-06T12:50:52.306Z,21.86
2023-05-06T12:52:06.506Z,21.93
2023-05-06T12:53:13.600Z,20.87
2023-05-06T12:54:31.377Z,21.61
2023-05-06T12:55:36.701Z,20.08
2023-05-06T12:56:39.047Z,22.67
2023-05-06T12:57:41.546Z,23.31
2023-05-06T12:58:45.270Z,24.97
2023-05-06T12:59:48.635Z,20.40
2023-05-06T13:00:51.987Z,20.76
2023-05-06T13:01:54.993Z,23.59
2023-05-06T13:02:58.357Z,24.48
2023-05-06T13:04:00.887Z,21.21
2023-05-06T13:05:03.816Z,21.67
2023-05-06T13:06:07.429Z,20.72
2023-05-06T13:07:10.280Z,20.33
2023-05-06T13:08:13.605Z,21.41
2023-05-06T13:09:16.044Z,21.09
2023-05-06T13:10:18.596Z,22.46
2023-05-06T13:11:21.502Z,20.97
2023-05-06T13:12:23.896Z,20.88
2023-05-06T13:13:26.662Z,22.37
2023-05-06T13:14:29.824Z,21.48
2023-05-06T13:15:33.921Z,21.31
2023-05-06T13:16:38.889Z,20.76
2023-05-06T13:17:41.228Z,22.10
2023-05-06T13:18:43.612Z,19.75
2023-05-06T13:19:46.549Z,20.42
2023-05-06T13:20:50.224Z,20.50
2023-05-06T13:21:52.545Z,20.42
2023-05-06T13:22:55.892Z,20.82
2023-05-06T13:23:58.962Z,20.71
2023-05-06T13:25:01.293Z,19.84
2023-05-06T13:26:05.753Z,20.00
2023-05-06T13:27:08.624Z,18.80
2023-05-06T13:28:10.607Z,18.58
2023-05-06T13:29:13.611Z,20.95
2023-05-06T13:30:16.505Z,18.66
2023-05-06T13:31:19.430Z,19.45
2023-05-06T13:32:21.754Z,19.94
2023-05-06T13:33:24.534Z,19.60
2023-05-06T13:34:26.853Z,18.24
2023-05-06T13:35:29.994Z,18.94
2023-05-06T13:36:32.365Z,21.52
2023-05-06T13:37:34.599Z,18.39
2023-05-06T13:38:37.774Z,20.30
2023-05-06T13:39:40.250Z,21.10
2023-05-06T13:40:46.350Z,20.87
2023-05-06T13:41:49.633Z,20.40
2023-05-06T13:42:51.602Z,20.42
2023-05-06T13:43:54.399Z,18.73
2023-05-06T13:44:56.682Z,19.94
2023-05-06T13:45:59.056Z,18.97
2023-05-06T13:47:01.673Z,19.90
2023-05-06T13:48:04.049Z,18.60
2023-05-06T13:49:07.446Z,19.15
2023-05-06T13:50:11.303Z,19.60
2023-05-06T13:51:13.792Z,18.47
2023-05-06T13:52:16.029Z,19.96